Time;durP1;ratioP1;P1;durP2;ratioP2;P2;SDS_P1;SDS_P2;PMS_P1;PMS_P2;Temp;Humidity;BMP_temperature;BMP_pressure;BME280_temperature;BME280_humidity;BME280_pressure;Samples;Min_cycle;Max_cycle;Signal;HPM_P1;HPM_P2
2022/11/12 00:00:42;;;;;;;10.25;5.55;;;18.20;90.00;;;18.46;54.45;100242.16;5036674;28;20086;-75
2022/11/12 00:03:13;;;;;;;8.68;5.30;;;18.10;90.00;;;18.44;54.43;100248.78;5053376;28;20041;-75
2022/11/12 00:05:39;;;;;;;4.45;3.90;;;18.10;90.00;;;18.52;54.54;100241.84;5066297;28;20041;-75
2022/11/12 00:08:05;;;;;;;8.82;4.63;;;18.20;90.20;;;18.57;54.58;100252.78;5036373;28;20062;-75
2022/11/12 00:10:31;;;;;;;9.10;4.40;;;18.20;90.10;;;18.55;54.53;100251.44;5037068;28;20036;-75
2022/11/12 00:12:58;;;;;;;7.55;5.10;;;18.30;90.00;;;18.46;54.59;100251.22;5047479;28;20123;-75
2022/11/12 00:15:25;;;;;;;8.30;4.68;;;18.30;89.90;;;18.51;54.31;100236.63;5034129;28;20040;-75
2022/11/12 00:17:51;;;;;;;7.43;4.55;;;18.30;90.00;;;18.45;54.21;100238.59;5062768;28;20056;-75
2022/11/12 00:20:17;;;;;;;13.18;4.43;;;18.20;89.80;;;18.47;54.32;100241.06;5045408;28;20467;-75
2022/11/12 00:22:44;;;;;;;6.75;4.40;;;18.20;89.80;;;18.48;54.57;100238.03;5052413;28;20032;-75
2022/11/12 00:25:10;;;;;;;8.30;5.72;;;18.20;90.10;;;18.53;54.59;100240.72;5049445;28;20399;-75
2022/11/12 00:27:36;;;;;;;5.25;4.07;;;18.30;90.10;;;18.53;54.02;100240.72;5048202;28;20051;-75
2022/11/12 00:30:03;;;;;;;8.85;4.53;;;18.30;89.90;;;18.44;54.40;100248.78;5034442;28;20044;-75
2022/11/12 00:32:29;;;;;;;7.10;4.38;;;18.30;89.70;;;18.38;54.44;100238.94;5044621;28;20040;-75
2022/11/12 00:34:55;;;;;;;7.40;4.07;;;18.20;89.80;;;18.31;54.57;100240.41;5053266;28;20047;-75
2022/11/12 00:37:22;;;;;;;8.52;4.95;;;18.10;90.30;;;18.41;54.58;100240.28;5065906;28;20041;-75
2022/11/12 00:39:48;;;;;;;4.93;4.25;;;18.10;90.10;;;18.44;54.72;100236.94;5033582;28;20037;-75
2022/11/12 00:42:14;;;;;;;8.38;3.92;;;18.20;90.20;;;18.45;54.44;100233.13;5054152;28;20040;-75
2022/11/12 00:44:41;;;;;;;7.57;5.05;;;18.20;90.00;;;18.44;54.34;100239.69;5025880;28;20032;-75
2022/11/12 00:47:07;;;;;;;5.97;4.25;;;18.20;89.80;;;18.41;54.67;100246.59;5050959;28;20575;-75
2022/11/12 00:49:33;;;;;;;6.57;4.43;;;18.10;89.90;;;18.39;54.04;100243.34;5029950;28;20044;-75
2022/11/12 00:51:59;;;;;;;9.50;4.90;;;18.10;89.70;;;18.35;54.29;100250.50;5048741;28;20056;-75
2022/11/12 00:54:25;;;;;;;7.00;4.00;;;18.10;89.80;;;18.43;54.38;100249.06;5037659;28;20078;-75
2022/11/12 00:56:52;;;;;;;10.45;4.50;;;18.10;90.00;;;18.43;54.59;100241.63;5053725;28;20097;-75
2022/11/12 00:59:18;;;;;;;6.35;4.45;;;18.20;90.00;;;18.41;54.19;100245.78;5021659;28;20703;-75
2022/11/12 01:01:44;;;;;;;6.10;4.07;;;18.20;90.00;;;18.36;54.33;100245.84;5050963;28;20040;-75
2022/11/12 01:04:10;;;;;;;8.07;4.60;;;18.20;89.80;;;18.33;54.48;100241.75;5033153;28;20119;-75
2022/11/12 01:06:39;;;;;;;4.63;3.75;;;18.20;89.80;;;18.32;54.19;100236.53;5028133;28;20124;-75
2022/11/12 01:09:06;;;;;;;8.73;4.72;;;18.10;89.70;;;18.30;54.30;100250.56;5019783;28;20114;-75
2022/11/12 01:11:32;;;;;;;6.03;4.18;;;18.10;89.90;;;18.38;54.42;100243.63;5066059;28;20556;-75
2022/11/12 01:14:01;;;;;;;7.82;4.40;;;18.10;90.00;;;18.44;54.35;100248.78;5047067;28;20037;-75
2022/11/12 01:16:30;;;;;;;9.48;4.30;;;18.10;90.00;;;18.39;53.96;100245.25;5062996;28;20079;-75
2022/11/12 01:18:59;;;;;;;7.05;4.88;;;18.10;89.60;;;18.26;54.44;100251.44;5041945;28;20094;-75
2022/11/12 01:21:28;;;;;;;5.45;4.32;;;18.00;89.80;;;18.26;54.41;100251.44;5028197;28;20091;-75
2022/11/12 01:23:58;;;;;;;5.80;4.05;;;18.00;89.80;;;18.25;54.22;100256.13;5043322;28;20097;-75
2022/11/12 01:26:27;;;;;;;10.23;4.05;;;18.00;89.70;;;18.33;54.58;100258.22;5032232;28;20555;-75
2022/11/12 01:28:53;;;;;;;6.93;3.88;;;18.00;90.00;;;18.36;54.60;100251.34;5049367;28;20097;-75
2022/11/12 01:31:23;;;;;;;9.25;4.72;;;18.10;90.00;;;18.36;54.36;100252.16;5037222;28;20083;-75
2022/11/12 01:33:53;;;;;;;5.45;3.72;;;18.10;90.00;;;18.24;54.40;100246.22;5068252;28;20059;-75
2022/11/12 01:36:19;;;;;;;9.35;4.78;;;18.10;89.60;;;18.20;54.78;100259.72;5062454;28;20089;-75
2022/11/12 01:38:45;;;;;;;6.90;4.20;;;18.00;89.90;;;18.21;54.38;100255.84;5056157;28;20380;-75
2022/11/12 01:41:18;;;;;;;5.90;4.13;;;18.00;89.90;;;18.22;54.32;100246.53;5050087;28;20045;-75
2022/11/12 01:43:44;;;;;;;6.18;4.53;;;18.00;90.00;;;18.33;54.29;100243.69;5057296;28;20107;-75
2022/11/12 01:46:17;;;;;;;6.60;5.05;;;18.00;90.00;;;18.30;54.41;100252.50;5054753;28;20048;-75
2022/11/12 01:49:05;;;;;;;6.10;3.88;;;18.00;90.00;;;18.28;54.04;100250.03;5053822;28;20181;-75
2022/11/12 01:51:38;;;;;;;4.55;3.92;;;18.00;89.60;;;18.26;54.15;100240.44;5053314;28;20049;-74
2022/11/12 01:54:06;;;;;;;5.55;4.18;;;18.00;89.60;;;18.20;54.19;100245.97;5047224;28;20130;-75
2022/11/12 01:56:32;;;;;;;7.50;4.40;;;18.00;89.60;;;18.20;54.08;100251.47;5031890;28;20041;-75
2022/11/12 01:59:07;;;;;;;7.30;4.38;;;18.00;89.60;;;18.25;54.41;100250.63;5032765;28;20368;-75
2022/11/12 02:01:34;;;;;;;8.20;4.22;;;18.00;90.00;;;18.30;54.45;100261.56;5035764;28;20036;-75
2022/11/12 02:04:00;;;;;;;6.88;4.60;;;18.00;90.00;;;18.31;53.97;100257.69;5012366;28;20051;-74
2022/11/12 02:06:26;;;;;;;7.20;4.25;;;18.00;89.80;;;18.17;54.12;100267.72;5036048;28;20037;-75
2022/11/12 02:08:52;;;;;;;5.63;4.32;;;17.90;89.60;;;18.15;54.35;100262.50;5051894;28;20464;-75
2022/11/12 02:11:19;;;;;;;6.40;4.68;;;17.90;89.60;;;18.10;54.33;100259.00;5030640;28;20127;-75
2022/11/12 02:14:03;;;;;;;8.13;5.05;;;17.90;89.50;;;18.10;54.35;100259.00;5016937;28;20037;-75
2022/11/12 02:16:44;;;;;;;5.18;4.13;;;17.90;89.90;;;18.23;54.55;100263.81;5055509;28;20036;-75
2022/11/12 02:19:13;;;;;;;5.85;3.72;;;17.90;90.00;;;18.31;54.26;100254.13;5034636;28;20080;-75
2022/11/12 02:21:39;;;;;;;8.60;4.15;;;18.00;90.00;;;18.18;53.98;100250.94;5051611;28;20090;-75
2022/11/12 02:24:12;;;;;;;7.65;4.38;;;17.90;89.50;;;18.12;54.30;100251.28;5051479;28;20032;-75
2022/11/12 02:26:46;;;;;;;6.88;3.90;;;17.90;89.70;;;18.11;54.48;100252.38;5049844;28;20779;-75
2022/11/12 02:29:12;;;;;;;7.88;5.13;;;17.90;89.60;;;18.05;54.63;100250.81;5041960;28;20071;-75
2022/11/12 02:31:38;;;;;;;6.07;4.32;;;17.90;89.70;;;18.17;54.36;100254.00;5055065;28;20036;-75
2022/11/12 02:34:04;;;;;;;6.22;5.00;;;17.90;90.00;;;18.21;54.39;100249.53;5041640;28;20033;-74
2022/11/12 02:36:30;;;;;;;4.88;3.45;;;17.90;89.90;;;18.19;54.08;100249.00;5065163;28;20055;-75
2022/11/12 02:38:56;;;;;;;6.30;4.50;;;17.90;89.70;;;18.08;54.27;100253.78;5022489;28;20117;-75
2022/11/12 02:41:23;;;;;;;6.70;4.47;;;17.80;89.50;;;18.12;54.03;100251.28;5048719;28;20047;-75
2022/11/12 02:43:49;;;;;;;7.25;4.28;;;17.80;89.50;;;18.11;54.27;100257.88;5062211;28;20080;-75
2022/11/12 02:46:15;;;;;;;6.30;3.67;;;17.80;89.50;;;18.12;54.05;100254.03;5051531;28;20424;-75
2022/11/12 02:48:41;;;;;;;7.15;4.03;;;17.80;89.70;;;18.17;54.35;100260.31;5034561;28;20045;-75
2022/11/12 02:51:07;;;;;;;5.53;4.45;;;17.90;90.00;;;18.20;54.17;100258.91;5046531;28;20060;-75
2022/11/12 02:53:33;;;;;;;5.10;3.47;;;17.90;90.00;;;18.11;54.22;100255.94;5034501;28;20699;-75
2022/11/12 02:56:00;;;;;;;5.30;3.75;;;17.90;89.60;;;18.09;54.21;100251.84;5024505;28;20044;-75
2022/11/12 02:58:26;;;;;;;6.03;4.43;;;17.80;89.50;;;18.05;54.13;100257.09;5034766;28;20044;-75
2022/11/12 03:00:52;;;;;;;6.18;4.20;;;17.80;89.50;;;18.04;54.15;100266.47;5050359;28;20447;-74
2022/11/12 03:03:18;;;;;;;5.18;4.00;;;17.80;89.50;;;18.12;54.19;100270.53;5028741;28;21029;-75
2022/11/12 03:05:44;;;;;;;4.45;3.83;;;17.90;89.80;;;18.16;53.96;100252.34;5048776;28;20087;-75
2022/11/12 03:08:11;;;;;;;7.10;4.50;;;17.90;89.70;;;18.15;54.07;100251.53;5053294;28;20049;-75
2022/11/12 03:10:38;;;;;;;4.60;3.47;;;17.90;89.80;;;18.07;54.13;100260.41;5036605;28;20464;-75
2022/11/12 03:13:04;;;;;;;4.72;3.92;;;17.90;89.60;;;18.06;53.95;100264.22;5042762;28;20045;-75
2022/11/12 03:15:31;;;;;;;6.35;4.13;;;17.80;89.50;;;18.05;54.06;100256.28;5021331;28;20044;-75
2022/11/12 03:17:57;;;;;;;5.90;4.00;;;17.80;89.40;;;18.04;54.28;100260.13;5032304;28;20062;-75
2022/11/12 03:20:24;;;;;;;6.72;3.75;;;17.80;89.70;;;18.11;54.11;100257.88;5042073;28;20041;-75
2022/11/12 03:23:08;;;;;;;5.80;3.50;;;17.80;89.80;;;18.16;53.91;100257.84;5052793;28;20052;-75
2022/11/12 03:25:34;;;;;;;5.55;3.88;;;17.90;89.70;;;18.07;53.89;100251.34;5031486;28;20048;-75
2022/11/12 03:28:06;;;;;;;6.35;3.88;;;17.80;89.30;;;17.99;54.05;100250.84;5032414;28;20040;-75
2022/11/12 03:30:35;;;;;;;6.35;3.95;;;17.80;89.40;;;17.95;54.12;100249.78;5050211;28;20045;-75
2022/11/12 03:33:02;;;;;;;12.48;4.95;;;17.70;89.40;;;17.96;54.17;100256.91;5038668;28;20102;-75
2022/11/12 03:35:28;;;;;;;5.55;4.55;;;17.70;89.70;;;18.03;54.17;100247.53;5034907;28;20178;-75
2022/11/12 03:37:54;;;;;;;4.25;3.85;;;17.70;89.90;;;18.06;54.16;100242.25;5065197;28;20531;-75
2022/11/12 03:40:20;;;;;;;6.15;3.97;;;17.80;89.90;;;18.12;54.12;100246.63;5039180;28;20048;-75
2022/11/12 03:42:50;;;;;;;6.22;4.22;;;17.80;89.70;;;17.95;54.02;100251.72;5034152;28;20044;-75
2022/11/12 03:45:17;;;;;;;4.38;3.50;;;17.70;89.40;;;17.92;54.10;100250.34;5035262;28;20668;-75
2022/11/12 03:47:48;;;;;;;5.82;3.67;;;17.70;89.40;;;17.90;54.29;100243.50;5068288;28;20127;-75
2022/11/12 03:50:15;;;;;;;4.97;3.33;;;17.70;89.40;;;17.92;54.24;100255.84;5035816;28;20052;-75
2022/11/12 03:52:49;;;;;;;5.93;4.32;;;17.70;89.80;;;18.02;53.39;100248.63;5026903;28;20056;-75
2022/11/12 03:55:16;;;;;;;6.18;3.97;;;17.70;89.40;;;17.93;53.37;100253.91;5033972;28;20033;-75
2022/11/12 03:57:42;;;;;;;4.65;3.22;;;17.70;89.00;;;17.86;53.24;100251.50;5056608;28;20442;-75
2022/11/12 04:00:10;;;;;;;4.88;3.95;;;17.60;88.80;;;17.89;53.45;100245.44;5043292;28;20424;-75
2022/11/12 04:02:36;;;;;;;6.32;4.68;;;17.60;88.90;;;17.88;53.66;100246.53;5051926;28;20032;-75
2022/11/12 04:10:51;;;;;;;6.80;4.93;;;17.70;89.30;;;17.87;53.16;100250.41;5039801;28;20028;-75
2022/11/12 04:13:26;;;;;;;6.90;3.85;;;17.60;88.40;;;17.89;53.01;100245.44;5052842;28;20045;-75
2022/11/12 04:21:49;;;;;;;5.65;4.45;;;17.50;89.10;;;17.94;53.31;100245.41;5054531;28;20075;-75
2022/11/12 04:27:12;;;;;;;7.30;4.28;;;17.70;89.00;;;17.88;53.13;100246.53;5036743;28;20043;-75
2022/11/12 04:32:24;;;;;;;5.32;4.00;;;17.50;88.30;;;17.90;52.80;100240.78;5043031;28;20082;-76
2022/11/12 04:34:50;;;;;;;9.43;4.70;;;17.50;88.30;;;17.88;52.71;100240.22;5039205;28;20108;-75
2022/11/12 04:37:16;;;;;;;7.72;4.53;;;17.50;88.50;;;17.96;53.01;100243.19;5051360;28;20041;-75
2022/11/12 04:39:42;;;;;;;6.32;3.83;;;17.60;88.80;;;18.00;52.95;100235.19;5044141;28;20037;-75
2022/11/12 04:45:01;;;;;;;5.35;4.43;;;17.70;88.30;;;17.89;52.46;100233.66;5042555;28;20040;-75
2022/11/12 04:47:35;;;;;;;5.30;3.90;;;17.50;88.10;;;17.89;52.39;100239.94;5031840;28;20049;-75
2022/11/12 04:50:05;;;;;;;5.28;4.43;;;17.50;88.30;;;17.90;52.32;100232.53;5023343;28;20124;-75
2022/11/12 04:52:31;;;;;;;6.10;4.35;;;17.50;88.30;;;17.96;52.55;100234.13;5018142;28;20072;-75
2022/11/12 04:54:57;;;;;;;5.32;4.28;;;17.60;88.70;;;18.00;52.89;100244.25;5023910;28;20119;-75
2022/11/12 04:57:23;;;;;;;5.68;4.03;;;17.60;88.70;;;17.99;52.46;100242.63;5020618;28;20048;-75
2022/11/12 04:59:49;;;;;;;4.95;3.70;;;17.70;88.40;;;17.91;52.10;100245.13;5059714;28;20036;-75
2022/11/12 05:02:16;;;;;;;4.90;4.07;;;17.60;88.10;;;17.96;52.32;100243.19;5042395;28;20496;-75
2022/11/12 05:04:42;;;;;;;5.07;3.95;;;17.50;88.10;;;17.97;52.04;100244.81;5054007;28;20033;-75
2022/11/12 05:07:09;;;;;;;5.18;4.20;;;17.50;88.00;;;18.01;51.86;100245.06;5043281;28;20119;-75
2022/11/12 05:09:35;;;;;;;6.55;4.50;;;17.70;88.00;;;18.07;52.34;100249.41;5048986;28;20048;-75
2022/11/12 05:12:01;;;;;;;8.38;4.13;;;17.70;88.30;;;18.09;52.47;100246.34;5030451;28;20040;-75
2022/11/12 05:14:27;;;;;;;6.63;5.03;;;17.70;88.40;;;18.07;51.97;100243.09;5065281;28;20041;-75
2022/11/12 05:16:53;;;;;;;6.22;4.80;;;17.70;88.10;;;18.03;52.24;100236.53;5065554;28;20047;-75
2022/11/12 05:19:19;;;;;;;5.50;4.13;;;17.70;87.70;;;18.03;52.01;100239.28;5050044;28;20041;-75
2022/11/12 05:22:04;;;;;;;6.60;4.68;;;17.70;87.70;;;18.12;51.62;100245.81;5048935;28;20044;-75
2022/11/12 05:24:32;;;;;;;6.60;4.80;;;17.70;87.70;;;18.09;52.01;100244.44;5052978;28;20109;-75
2022/11/12 05:26:58;;;;;;;4.82;3.90;;;17.70;87.70;;;18.13;52.08;100239.19;5031319;28;20040;-75
2022/11/12 05:29:24;;;;;;;5.88;4.38;;;17.70;87.70;;;18.10;52.25;100245.25;5067285;28;20049;-75
2022/11/12 05:31:50;;;;;;;6.38;4.30;;;17.70;88.20;;;18.12;51.82;100245.81;5020384;28;20044;-76
2022/11/12 05:34:16;;;;;;;7.43;4.22;;;17.80;87.80;;;18.12;51.94;100240.31;5017214;28;20041;-75
2022/11/12 05:36:42;;;;;;;7.43;4.35;;;17.80;87.70;;;18.08;51.83;100244.72;5053417;28;20171;-75
2022/11/12 05:39:08;;;;;;;5.72;4.22;;;17.70;87.70;;;18.14;51.66;100240.81;5052789;28;20463;-75
2022/11/12 05:41:34;;;;;;;7.82;4.32;;;17.70;87.70;;;18.16;51.93;100253.16;5021471;28;20036;-75
2022/11/12 05:44:00;;;;;;;5.95;4.80;;;17.70;88.10;;;18.19;51.87;100252.59;5063288;28;20052;-75
2022/11/12 05:46:26;;;;;;;5.40;4.10;;;17.70;88.30;;;18.17;51.90;100254.81;5040712;28;20051;-75
2022/11/12 05:48:52;;;;;;;5.97;4.43;;;17.70;88.10;;;18.14;51.84;100254.53;5031845;28;20037;-75
2022/11/12 05:51:18;;;;;;;5.57;4.18;;;17.70;88.10;;;18.23;51.52;100255.56;5048475;28;20106;-75
2022/11/12 05:53:45;;;;;;;4.97;4.15;;;17.70;88.10;;;18.21;51.55;100261.34;5013072;28;20068;-75
2022/11/12 05:56:11;;;;;;;7.20;4.10;;;17.70;87.80;;;18.26;51.61;100274.22;5028399;28;20048;-75
2022/11/12 05:58:37;;;;;;;5.60;4.45;;;17.70;87.80;;;18.20;51.30;100258.91;5030377;28;20112;-75
2022/11/12 06:01:04;;;;;;;5.32;4.55;;;17.70;87.70;;;18.22;51.60;100256.69;5032261;28;20028;-75
2022/11/12 06:03:30;;;;;;;5.45;4.05;;;17.60;88.10;;;18.29;51.71;100256.34;5045958;28;20431;-74
2022/11/12 06:05:56;;;;;;;8.07;4.22;;;17.60;88.60;;;18.28;51.84;100255.53;5062079;28;20045;-75
2022/11/12 06:08:22;;;;;;;4.38;3.50;;;17.60;88.80;;;18.37;51.51;100262.03;5049045;28;20055;-75
2022/11/12 06:10:52;;;;;;;4.32;3.58;;;17.60;88.80;;;18.38;51.54;100268.34;5042241;28;20155;-75
2022/11/12 06:13:19;;;;;;;8.23;4.45;;;17.60;88.60;;;18.37;51.44;100263.97;5022421;28;20059;-75
2022/11/12 06:15:45;;;;;;;5.10;4.30;;;17.70;88.50;;;18.37;51.48;100264.78;5035000;28;20431;-75
2022/11/12 06:18:11;;;;;;;5.72;4.90;;;17.60;88.40;;;18.37;51.40;100275.78;5032864;28;20049;-75
2022/11/12 06:20:37;;;;;;;6.68;5.18;;;17.70;88.60;;;18.46;51.46;100284.19;5058771;28;20644;-75
2022/11/12 06:23:03;;;;;;;7.53;4.55;;;17.70;88.80;;;18.47;51.56;100271.28;5037425;28;20045;-75
2022/11/12 06:25:30;;;;;;;5.88;3.90;;;17.70;88.60;;;18.48;51.46;100272.94;5040734;28;20068;-75
2022/11/12 06:27:56;;;;;;;4.90;3.28;;;17.70;88.80;;;18.48;51.48;100271.00;5040394;28;20387;-74
2022/11/12 06:30:22;;;;;;;6.22;4.63;;;17.70;88.60;;;18.48;51.30;100270.19;5024818;28;20041;-74
2022/11/12 06:32:49;;;;;;;4.30;3.70;;;17.70;88.70;;;18.57;51.24;100277.50;5042557;28;20056;-75
2022/11/12 06:35:15;;;;;;;10.48;4.80;;;17.80;88.50;;;18.60;51.15;100276.09;5052002;28;20052;-75
2022/11/12 06:37:41;;;;;;;7.07;4.13;;;17.80;88.70;;;18.62;51.39;100284.84;5035849;28;20040;-75
2022/11/12 06:40:08;;;;;;;4.30;3.90;;;17.80;88.80;;;18.59;51.49;100280.75;5065176;28;20044;-75
2022/11/12 06:42:34;;;;;;;5.53;4.03;;;17.80;89.00;;;18.68;51.57;100286.44;5029908;28;20044;-75
2022/11/12 06:45:00;;;;;;;5.50;3.80;;;17.80;88.90;;;18.69;51.15;100292.75;5033006;28;20684;-77
2022/11/12 06:47:26;;;;;;;7.60;4.35;;;17.80;88.80;;;18.68;51.15;100288.38;5060753;28;20045;-76
2022/11/12 06:49:52;;;;;;;6.60;3.95;;;17.80;88.80;;;18.76;51.09;100296.03;5053885;28;20055;-76
2022/11/12 06:52:18;;;;;;;7.10;4.63;;;17.80;88.70;;;18.73;50.79;100294.66;5064650;28;20116;-76
2022/11/12 06:54:44;;;;;;;5.93;4.10;;;17.80;88.90;;;18.80;51.27;100297.06;5045517;28;20040;-77
2022/11/12 06:57:10;;;;;;;4.20;3.80;;;17.90;89.30;;;18.83;51.17;100302.81;5032591;28;20060;-78
2022/11/12 06:59:37;;;;;;;5.80;4.45;;;17.90;89.00;;;18.86;51.02;100293.16;5046750;28;20090;-78
2022/11/12 07:02:03;;;;;;;5.50;3.88;;;17.90;89.10;;;18.83;50.95;100297.31;5056482;28;20041;-78
2022/11/12 07:04:29;;;;;;;5.40;4.63;;;17.90;89.00;;;18.85;50.96;100303.34;5016141;28;20052;-78
2022/11/12 07:06:55;;;;;;;3.67;3.30;;;17.90;89.00;;;18.85;50.73;100297.84;5030853;28;20041;-78
2022/11/12 07:09:21;;;;;;;4.13;3.50;;;17.90;88.90;;;18.84;49.86;100296.19;5034221;28;20450;-76
2022/11/12 07:11:47;;;;;;;6.10;4.43;;;17.80;87.90;;;18.85;49.80;100308.84;5017648;28;20443;-75
2022/11/12 07:14:13;;;;;;;6.75;4.82;;;17.90;88.00;;;18.77;49.97;100306.72;5039537;28;20492;-75
2022/11/12 07:16:39;;;;;;;7.53;4.53;;;17.90;87.90;;;18.79;49.54;100304.50;5047747;28;20036;-76
2022/11/12 07:19:05;;;;;;;5.75;4.47;;;17.90;87.10;;;18.82;49.04;100301.16;5021747;28;20151;-75
2022/11/12 07:21:31;;;;;;;7.18;5.05;;;18.00;86.60;;;18.76;49.06;100307.84;5027544;28;20074;-75
2022/11/12 07:23:57;;;;;;;5.45;4.18;;;18.10;86.10;;;18.79;48.69;100310.00;5047787;28;20047;-75
2022/11/12 07:26:26;;;;;;;6.97;5.15;;;18.20;85.50;;;18.82;48.25;100309.41;5027824;28;20036;-76
2022/11/12 07:28:55;;;;;;;7.15;5.20;;;18.10;85.20;;;18.91;48.42;100312.34;5045289;28;20051;-75
2022/11/12 07:31:21;;;;;;;8.93;4.82;;;18.10;85.30;;;18.96;48.42;100311.47;5031891;28;20504;-75
2022/11/12 07:33:47;;;;;;;7.43;5.03;;;18.10;85.60;;;18.98;48.16;100312.81;5046512;28;20041;-76
2022/11/12 07:36:16;;;;;;;6.82;5.38;;;18.10;85.90;;;18.99;48.17;100308.13;5041071;28;20414;-75
2022/11/12 07:38:42;;;;;;;6.50;4.70;;;18.10;86.00;;;19.01;48.53;100308.66;5029853;28;20040;-75
2022/11/12 07:41:14;;;;;;;11.73;5.40;;;18.10;86.10;;;19.04;48.79;100308.88;5031401;28;20782;-75
2022/11/12 07:43:41;;;;;;;11.07;6.70;;;18.10;86.50;;;19.06;48.93;100303.91;5024973;28;20044;-75
2022/11/12 07:46:12;;;;;;;13.23;6.18;;;18.10;86.80;;;19.08;48.77;100307.19;5027828;28;20495;-75
2022/11/12 07:48:39;;;;;;;14.13;7.10;;;18.20;86.70;;;19.12;48.85;100299.16;5048409;28;20047;-75
2022/11/12 07:51:10;;;;;;;9.88;6.28;;;18.10;86.70;;;19.13;48.72;100306.28;5036967;28;20049;-75
2022/11/12 07:53:37;;;;;;;;;;;18.20;86.60;;;19.15;48.70;100300.50;5031634;28;20044;-76
2022/11/12 07:56:03;;;;;;;16.00;7.22;;;18.30;86.40;;;19.16;49.10;100308.47;5047219;28;19931;-75
2022/11/12 07:58:31;;;;;;;16.95;7.63;;;18.30;86.90;;;19.15;48.91;100306.81;5059547;28;20102;-76
2022/11/12 08:00:57;;;;;;;13.98;6.38;;;18.30;87.00;;;19.18;49.06;100300.72;5027394;28;20064;-75
2022/11/12 08:03:23;;;;;;;15.15;7.22;;;18.30;87.40;;;19.23;49.03;100303.44;5058461;28;20049;-76
2022/11/12 08:05:50;;;;;;;16.70;8.40;;;18.30;87.00;;;19.20;48.89;100298.50;5043459;28;20065;-76
2022/11/12 08:08:16;;;;;;;10.75;6.63;;;18.30;87.80;;;19.22;48.92;100301.78;5048680;28;20051;-76
2022/11/12 08:10:42;;;;;;;19.92;8.95;;;18.30;87.00;;;19.23;48.93;100305.34;5035817;28;20098;-75
2022/11/12 08:13:08;;;;;;;14.82;7.95;;;18.30;87.00;;;19.25;49.05;100306.69;5044630;28;20048;-76
2022/11/12 08:15:35;;;;;;;15.30;8.38;;;18.30;87.30;;;19.26;49.40;100302.03;5034550;28;20040;-76
2022/11/12 08:18:01;;;;;;;17.52;7.97;;;18.40;87.40;;;19.28;48.95;100303.38;5043230;28;20269;-75
2022/11/12 08:20:27;;;;;;;12.55;7.05;;;18.40;87.30;;;19.32;49.13;100298.09;5046505;28;20047;-76
2022/11/12 08:22:57;;;;;;;14.57;7.70;;;18.50;87.20;;;19.28;49.13;100305.28;5026998;28;20045;-76
2022/11/12 08:25:23;;;;;;;18.17;8.30;;;18.50;87.00;;;19.30;49.03;100306.63;5008971;28;20072;-75
2022/11/12 08:27:50;;;;;;;17.67;8.18;;;18.50;87.20;;;19.32;49.16;100305.53;5062758;28;20045;-75
2022/11/12 08:30:16;;;;;;;15.32;7.65;;;18.50;87.30;;;19.33;49.13;100310.72;5039257;28;20056;-75
2022/11/12 08:32:42;;;;;;;17.90;9.13;;;18.50;87.30;;;19.35;49.35;100307.69;5018314;28;20036;-75
2022/11/12 08:35:08;;;;;;;14.15;7.80;;;18.50;87.30;;;19.37;49.02;100310.97;5059210;28;20040;-75
2022/11/12 08:37:34;;;;;;;18.95;8.25;;;18.60;87.30;;;19.35;49.15;100315.94;5063860;28;20048;-75
2022/11/12 08:40:00;;;;;;;14.00;6.85;;;18.60;87.20;;;19.39;48.95;100303.25;5050501;28;20044;-76
2022/11/12 08:42:27;;;;;;;15.05;8.38;;;18.60;87.10;;;19.33;49.24;100313.47;5041245;28;20399;-75
2022/11/12 08:44:52;;;;;;;17.50;8.93;;;18.50;87.20;;;19.38;49.33;100302.41;5029218;28;20036;-75
2022/11/12 08:47:19;;;;;;;20.38;9.40;;;18.60;87.40;;;19.43;49.21;100318.84;5044668;28;20478;-75
2022/11/12 08:49:44;;;;;;;20.83;9.10;;;18.60;87.30;;;19.42;49.50;100314.47;5062238;28;20048;-75
2022/11/12 08:52:11;;;;;;;17.45;8.32;;;18.60;87.30;;;19.41;49.51;100318.34;5046229;28;20060;-75
2022/11/12 08:54:37;;;;;;;20.23;8.95;;;18.60;87.20;;;19.45;49.03;100310.31;5047081;28;20044;-75
2022/11/12 08:57:03;;;;;;;20.15;9.55;;;18.70;87.20;;;19.49;48.97;100311.34;5028201;28;20046;-75
2022/11/12 08:59:29;;;;;;;16.25;8.43;;;18.70;87.20;;;19.46;49.18;100317.44;5046336;28;20032;-75
2022/11/12 09:01:55;;;;;;;17.40;8.48;;;18.70;87.20;;;19.48;49.06;100312.47;5063087;28;20040;-75
2022/11/12 09:04:22;;;;;;;15.35;8.65;;;18.70;87.20;;;19.49;49.21;100316.88;5035575;28;20456;-76
2022/11/12 09:06:49;;;;;;;18.95;8.90;;;18.80;87.10;;;19.48;48.98;100318.78;5059777;28;20048;-75
2022/11/12 09:09:15;;;;;;;18.70;9.45;;;18.80;87.00;;;19.53;49.10;100326.16;5049049;28;20076;-75
2022/11/12 09:11:41;;;;;;;21.42;8.40;;;18.80;86.90;;;19.52;49.12;100319.03;5047882;28;20095;-75
2022/11/12 09:14:07;;;;;;;20.73;9.65;;;18.90;86.70;;;19.52;48.84;100316.25;5026571;28;20037;-75
2022/11/12 09:16:33;;;;;;;18.98;9.68;;;18.90;86.80;;;19.55;49.09;100312.91;5051468;28;20040;-76
2022/11/12 09:18:59;;;;;;;19.42;9.30;;;18.90;86.80;;;19.53;49.27;100306.88;5046223;28;20519;-76
2022/11/12 09:21:25;;;;;;;20.60;10.00;;;18.90;87.00;;;19.58;49.21;100309.56;5046697;28;20043;-75
2022/11/12 09:23:51;;;;;;;15.80;8.77;;;18.90;87.10;;;19.59;49.18;100304.88;5061343;28;20040;-76
2022/11/12 09:26:17;;;;;;;18.38;8.32;;;18.90;87.10;;;19.57;49.05;100312.63;5015514;28;20719;-75
2022/11/12 09:28:43;;;;;;;16.48;9.82;;;18.90;86.90;;;19.61;48.93;100308.16;5047991;28;20042;-75
2022/11/12 09:31:09;;;;;;;19.38;8.98;;;18.90;86.90;;;19.59;48.96;100308.47;5046553;28;20098;-76
2022/11/12 09:33:37;;;;;;;25.90;12.40;;;19.00;86.80;;;19.67;50.35;100307.81;5045281;28;20033;-83
2022/11/12 09:36:04;;;;;;;39.08;15.05;;;19.00;88.20;;;19.71;52.50;100295.09;5016060;28;20926;-75
2022/11/12 09:38:30;;;;;;;25.35;13.15;;;19.10;90.40;;;19.73;51.34;100301.13;5034624;28;20711;-75
2022/11/12 09:41:05;;;;;;;40.08;13.95;;;19.10;89.20;;;19.72;50.84;100296.75;5028577;28;20044;-76
2022/11/12 09:43:42;;;;;;;28.70;12.52;;;19.10;89.10;;;19.75;50.62;100298.06;5062460;28;20044;-76
2022/11/12 09:46:30;;;;;;;33.42;13.20;;;19.10;88.60;;;19.73;50.42;100295.59;5053829;28;20087;-76
2022/11/12 09:49:18;;;;;;;32.85;12.57;;;19.10;88.40;;;19.77;50.32;100297.75;5054502;28;20048;-76
2022/11/12 09:51:53;;;;;;;29.70;12.23;;;19.20;88.40;;;19.75;50.44;100302.78;5037784;28;20067;-76
2022/11/12 09:54:26;;;;;;;29.70;12.27;;;19.20;88.30;;;19.76;50.52;100304.41;5037029;28;20079;-76
2022/11/12 09:56:52;;;;;;;30.08;12.52;;;19.20;88.40;;;19.75;50.26;100303.56;5020325;28;20044;-76
2022/11/12 09:59:18;;;;;;;25.83;11.60;;;19.20;88.20;;;19.75;50.23;100300.81;5025841;28;20040;-76
2022/11/12 10:02:01;;;;;;;24.92;12.35;;;19.10;88.00;;;19.77;50.20;100300.50;5046620;28;20044;-75
2022/11/12 10:04:38;;;;;;;;;;;19.20;87.90;;;19.81;50.04;100301.56;5042086;28;20040;-75
2022/11/12 10:07:13;;;;;;;34.90;13.40;;;19.30;87.80;;;19.76;50.05;100301.63;5067257;28;19925;-75
2022/11/12 10:10:01;;;;;;;25.20;13.35;;;19.20;87.70;;;19.79;50.05;100301.03;5039425;28;20083;-75
2022/11/12 10:12:38;;;;;;;25.35;12.10;;;19.30;87.90;;;19.81;49.72;100304.31;5050477;28;20063;-75
2022/11/12 10:18:53;;;;;;;25.30;10.38;;;19.30;87.70;;;19.82;49.71;100295.78;5059143;28;20134;-75
2022/11/12 10:22:03;;;;;;;29.38;10.98;;;19.30;87.50;;;19.83;49.75;100291.06;5067015;28;20119;-75
2022/11/12 10:24:34;;;;;;;24.70;10.73;;;19.30;87.30;;;19.85;49.61;100289.66;5066648;28;20048;-76
2022/11/12 10:27:09;;;;;;;28.83;11.87;;;19.40;87.60;;;19.90;50.31;100289.56;5051108;28;20045;-74
2022/11/12 10:29:46;;;;;;;20.52;10.77;;;19.40;88.20;;;19.95;50.51;100281.22;5035766;28;20485;-75
2022/11/12 10:32:14;;;;;;;26.08;11.18;;;19.30;88.60;;;20.05;50.62;100279.41;5064585;28;20132;-75
2022/11/12 10:34:40;;;;;;;23.92;10.50;;;19.30;89.30;;;20.08;50.30;100281.59;5063896;28;20036;-74
2022/11/12 10:37:32;;;;;;;29.08;10.93;;;19.40;88.90;;;20.10;50.20;100279.34;5036530;28;20041;-74